Terminal Aerodrome Forecast
Issued by NWS

Home | Current Version | Previous Version | Graphics & Text | Print | Product List | Glossary On
Versions: 1 2 3 4 5 6 7 8 9 10 11 12
000
FTUS43 KGRB 220500
TAFAUW
TAF
KAUW 220531Z 2206/2306 30011G18KT P6SM SCT030 BKN050
      TEMPO 2206/2210 -SN BKN022
     FM221500 30014G23KT P6SM VCSH BKN035 OVC060
     FM230100 32007KT P6SM SCT035 BKN070=

USA.gov is the U.S. government's official web portal to all federal, state and local government web resources and services.